Lady Alida — PBFF — position and weather

sailwx.info

Track history (hours):
 
Tides and Currents Weather Stations Pressure Air Temp Water Temp Dewpoint Dewpoint Depression Visibility Wind Speed Wind Dir Waves Ship Positions

Lady Alida

Last reported at 2018-Jul-20 18:23 UTC. Time now 2018-Jul-22 14:28 UTC.
Position N 40°04' E 004°49'.

Length 88 m; draft 3.3 m.

Type: Cargo ship. MMSI: 244630415.

Date/timePositionNaut miles runAvg speedWind from/ knotsBaromVisibWave heightAir tempDewpointWater temp
2018-Jul-20 18:23N 40°04' E 004°49'96 9.8
2018-Jul-20 08:35N 39°57' E 002°45'210.1
2018-Jul-20 08:25N 39°57' E 002°43'510.2
2018-Jul-20 07:58N 39°56' E 002°37'166 4.4
2018-Jul-18 18:15N 38°05' W 000°03'26 8.7
2018-Jul-18 15:18N 37°44' W 000°21'2 8.3
2018-Jul-18 15:00N 37°42' W 000°23'4 8.2
2018-Jul-18 14:30N 37°39' W 000°26'8 8.4
2018-Jul-18 13:30N 37°32' W 000°32'8 8.7
2018-Jul-18 12:35N 37°27' W 000°40'1 8.7
2018-Jul-18 12:28N 37°26' W 000°41'4 8.7
2018-Jul-18 12:00N 37°23' W 000°44'4 8.6
2018-Jul-18 11:29N 37°20' W 000°48'227 9.5
2018-Jul-17 11:40N 35°60' W 005°13'210.3
2018-Jul-17 11:30N 35°59' W 005°15'5 9.3
2018-Jul-17 11:00N 35°58' W 005°21'266 8.1
2018-Jul-16 02:20N 38°24' W 009°60'3 8.6
2018-Jul-16 02:00N 38°27' W 010°01'18 8.7
2018-Jul-15 23:58N 38°44' W 010°05'9 9.4
2018-Jul-15 22:58N 38°54' W 010°06'5 9.6
2018-Jul-15 22:29N 38°58' W 010°06'5 9.9
2018-Jul-15 22:00N 39°03' W 010°06'  
2018-Jul-13 01:53N 48°52' W 005°49'108 9.4
2018-Jul-12 14:24N 49°47' W 003°26'410.0
2018-Jul-12 14:00N 49°49' W 003°21'710.8
2018-Jul-12 13:24N 49°53' W 003°12'511.2
2018-Jul-12 12:59N 49°55' W 003°06'611.4
2018-Jul-12 12:27N 49°58' W 002°58'711.5
2018-Jul-12 11:52N 50°01' W 002°48'114 9.3
2018-Jul-11 23:34N 50°32' E 000°04'110.3
2018-Jul-11 23:28N 50°32' E 000°05'610.1
2018-Jul-11 22:51N 50°34' E 000°15'3 9.7
2018-Jul-11 22:30N 50°35' E 000°20'5 9.3
2018-Jul-11 21:59N 50°36' E 000°27'4 8.8
2018-Jul-11 21:30N 50°38' E 000°33'4 8.4
2018-Jul-11 21:00N 50°40' E 000°39'4 8.3
2018-Jul-11 20:30N 50°42' E 000°44'4 8.3
2018-Jul-11 20:00N 50°45' E 000°49'11 9.1
2018-Jul-11 18:51N 50°51' E 001°03'710.4
2018-Jul-11 18:12N 50°55' E 001°11'311.2
2018-Jul-11 17:57N 50°57' E 001°15'512.0
2018-Jul-11 17:30N 51°00' E 001°21'612.5
2018-Jul-11 17:00N 51°04' E 001°29'612.6
2018-Jul-11 16:30N 51°09' E 001°36'611.7
2018-Jul-11 16:00N 51°13' E 001°43'510.8
2018-Jul-11 15:30N 51°17' E 001°48'510.0
2018-Jul-11 15:00N 51°21' E 001°52'5 9.1
2018-Jul-11 14:27N 51°26' E 001°56'5 8.6
2018-Jul-11 13:54N 51°29' E 002°01'29 8.1
2018-Jul-11 10:19N 51°50' E 002°34'3 8.0
2018-Jul-11 09:57N 51°51' E 002°38'12 9.5
2018-Jul-11 08:40N 51°58' E 002°54'20 9.5
2018-Jul-11 06:37N 52°03' E 003°25'4 9.7
2018-Jul-11 06:14N 52°03' E 003°31'2 9.5
2018-Jul-11 06:00N 52°03' E 003°35'5 9.5
2018-Jul-11 05:30N 52°02' E 003°42'5 9.6
2018-Jul-11 05:00N 52°02' E 003°50'5 9.5
2018-Jul-11 04:30N 52°02' E 003°58'5 9.9
2018-Jul-11 04:00N 51°59' E 004°05'5 9.9
2018-Jul-11 03:30N 51°56' E 004°11'3 6.1
2018-Jul-11 03:00N 51°54' E 004°14'0 0.1
2018-Jul-11 02:29N 51°54' E 004°14'0 0.0
2018-Jul-11 01:59N 51°54' E 004°14'0 0.0
2018-Jul-11 01:29N 51°54' E 004°14'0 0.0
2018-Jul-11 00:59N 51°54' E 004°14'0 0.0
2018-Jul-11 00:29N 51°54' E 004°14'0 0.0
2018-Jul-10 23:59N 51°54' E 004°14'0 0.0
2018-Jul-10 23:29N 51°54' E 004°14'0 0.0
2018-Jul-10 22:59N 51°54' E 004°14'0 0.0
2018-Jul-10 22:29N 51°54' E 004°14'0 0.0
2018-Jul-10 21:59N 51°54' E 004°14'0 0.0
2018-Jul-10 21:29N 51°54' E 004°14'0 0.0
2018-Jul-10 20:59N 51°54' E 004°14'0 0.0
2018-Jul-10 20:26N 51°54' E 004°14'0 0.0
2018-Jul-10 19:59N 51°54' E 004°14'0 0.0
2018-Jul-10 19:29N 51°54' E 004°14'0 0.0
2018-Jul-10 18:59N 51°54' E 004°14'0 0.0
2018-Jul-10 18:29N 51°54' E 004°14'  
Track history (hours):
 
Tides and Currents Weather Stations Pressure Air Temp Water Temp Dewpoint Dewpoint Depression Visibility Wind Speed Wind Dir Waves Ship Positions

Lady Alida

Last reported at 2018-Jul-20 18:23 UTC. Time now 2018-Jul-22 14:28 UTC.
Position N 40°04' E 004°49'.

Length 88 m; draft 3.3 m.

Type: Cargo ship. MMSI: 244630415.

Date/timePositionNaut miles runAvg speedWind from/ knotsBaromVisibWave heightAir tempDewpointWater temp
2018-Jul-20 18:23N 40°04' E 004°49'96 9.8
2018-Jul-20 08:35N 39°57' E 002°45'210.1
2018-Jul-20 08:25N 39°57' E 002°43'510.2
2018-Jul-20 07:58N 39°56' E 002°37'166 4.4
2018-Jul-18 18:15N 38°05' W 000°03'26 8.7
2018-Jul-18 15:18N 37°44' W 000°21'2 8.3
2018-Jul-18 15:00N 37°42' W 000°23'4 8.2
2018-Jul-18 14:30N 37°39' W 000°26'8 8.4
2018-Jul-18 13:30N 37°32' W 000°32'8 8.7
2018-Jul-18 12:35N 37°27' W 000°40'1 8.7
2018-Jul-18 12:28N 37°26' W 000°41'4 8.7
2018-Jul-18 12:00N 37°23' W 000°44'4 8.6
2018-Jul-18 11:29N 37°20' W 000°48'227 9.5
2018-Jul-17 11:40N 35°60' W 005°13'210.3
2018-Jul-17 11:30N 35°59' W 005°15'5 9.3
2018-Jul-17 11:00N 35°58' W 005°21'266 8.1
2018-Jul-16 02:20N 38°24' W 009°60'3 8.6
2018-Jul-16 02:00N 38°27' W 010°01'18 8.7
2018-Jul-15 23:58N 38°44' W 010°05'9 9.4
2018-Jul-15 22:58N 38°54' W 010°06'5 9.6
2018-Jul-15 22:29N 38°58' W 010°06'5 9.9
2018-Jul-15 22:00N 39°03' W 010°06'  
2018-Jul-13 01:53N 48°52' W 005°49'108 9.4
2018-Jul-12 14:24N 49°47' W 003°26'410.0
2018-Jul-12 14:00N 49°49' W 003°21'710.8
2018-Jul-12 13:24N 49°53' W 003°12'511.2
2018-Jul-12 12:59N 49°55' W 003°06'611.4
2018-Jul-12 12:27N 49°58' W 002°58'711.5
2018-Jul-12 11:52N 50°01' W 002°48'114 9.3
2018-Jul-11 23:34N 50°32' E 000°04'110.3
2018-Jul-11 23:28N 50°32' E 000°05'610.1
2018-Jul-11 22:51N 50°34' E 000°15'3 9.7
2018-Jul-11 22:30N 50°35' E 000°20'5 9.3
2018-Jul-11 21:59N 50°36' E 000°27'4 8.8
2018-Jul-11 21:30N 50°38' E 000°33'4 8.4
2018-Jul-11 21:00N 50°40' E 000°39'4 8.3
2018-Jul-11 20:30N 50°42' E 000°44'4 8.3
2018-Jul-11 20:00N 50°45' E 000°49'11 9.1
2018-Jul-11 18:51N 50°51' E 001°03'710.4
2018-Jul-11 18:12N 50°55' E 001°11'311.2
2018-Jul-11 17:57N 50°57' E 001°15'512.0
2018-Jul-11 17:30N 51°00' E 001°21'612.5
2018-Jul-11 17:00N 51°04' E 001°29'612.6
2018-Jul-11 16:30N 51°09' E 001°36'611.7
2018-Jul-11 16:00N 51°13' E 001°43'510.8
2018-Jul-11 15:30N 51°17' E 001°48'510.0
2018-Jul-11 15:00N 51°21' E 001°52'5 9.1
2018-Jul-11 14:27N 51°26' E 001°56'5 8.6
2018-Jul-11 13:54N 51°29' E 002°01'29 8.1
2018-Jul-11 10:19N 51°50' E 002°34'3 8.0
2018-Jul-11 09:57N 51°51' E 002°38'12 9.5
2018-Jul-11 08:40N 51°58' E 002°54'20 9.5
2018-Jul-11 06:37N 52°03' E 003°25'4 9.7
2018-Jul-11 06:14N 52°03' E 003°31'2 9.5
2018-Jul-11 06:00N 52°03' E 003°35'5 9.5
2018-Jul-11 05:30N 52°02' E 003°42'5 9.6
2018-Jul-11 05:00N 52°02' E 003°50'5 9.5
2018-Jul-11 04:30N 52°02' E 003°58'5 9.9
2018-Jul-11 04:00N 51°59' E 004°05'5 9.9
2018-Jul-11 03:30N 51°56' E 004°11'3 6.1
2018-Jul-11 03:00N 51°54' E 004°14'0 0.1
2018-Jul-11 02:29N 51°54' E 004°14'0 0.0
2018-Jul-11 01:59N 51°54' E 004°14'0 0.0
2018-Jul-11 01:29N 51°54' E 004°14'0 0.0
2018-Jul-11 00:59N 51°54' E 004°14'0 0.0
2018-Jul-11 00:29N 51°54' E 004°14'0 0.0
2018-Jul-10 23:59N 51°54' E 004°14'0 0.0
2018-Jul-10 23:29N 51°54' E 004°14'0 0.0
2018-Jul-10 22:59N 51°54' E 004°14'0 0.0
2018-Jul-10 22:29N 51°54' E 004°14'0 0.0
2018-Jul-10 21:59N 51°54' E 004°14'0 0.0
2018-Jul-10 21:29N 51°54' E 004°14'0 0.0
2018-Jul-10 20:59N 51°54' E 004°14'0 0.0
2018-Jul-10 20:26N 51°54' E 004°14'0 0.0
2018-Jul-10 19:59N 51°54' E 004°14'0 0.0
2018-Jul-10 19:29N 51°54' E 004°14'0 0.0
2018-Jul-10 18:59N 51°54' E 004°14'0 0.0
2018-Jul-10 18:29N 51°54' E 004°14'  

Dump ship's entire track history